sensor_id;sensor_type;location;lat;lon;timestamp;P1;durP1;ratioP1;P2;durP2;ratioP2
29960;SDS011;16816;44.444;26.152;2022-10-16T00:00:55;27.35;;;22.23;;
29960;SDS011;16816;44.444;26.152;2022-10-16T00:06:01;29.23;;;21.52;;
29960;SDS011;16816;44.444;26.152;2022-10-16T00:11:06;25.15;;;20.77;;
29960;SDS011;16816;44.444;26.152;2022-10-16T00:16:11;28.30;;;20.65;;
29960;SDS011;16816;44.444;26.152;2022-10-16T00:21:18;27.50;;;21.20;;
29960;SDS011;16816;44.444;26.152;2022-10-16T00:26:23;33.40;;;20.95;;
29960;SDS011;16816;44.444;26.152;2022-10-16T00:31:27;29.02;;;20.88;;
29960;SDS011;16816;44.444;26.152;2022-10-16T00:36:33;32.55;;;20.58;;
29960;SDS011;16816;44.444;26.152;2022-10-16T00:41:36;20.25;;;14.98;;
29960;SDS011;16816;44.444;26.152;2022-10-16T00:46:41;28.77;;;19.98;;
29960;SDS011;16816;44.444;26.152;2022-10-16T00:51:47;30.77;;;21.20;;
29960;SDS011;16816;44.444;26.152;2022-10-16T00:56:53;24.50;;;19.60;;
29960;SDS011;16816;44.444;26.152;2022-10-16T01:02:00;26.25;;;20.10;;
29960;SDS011;16816;44.444;26.152;2022-10-16T01:07:07;25.13;;;19.90;;
29960;SDS011;16816;44.444;26.152;2022-10-16T01:12:14;26.88;;;20.90;;
29960;SDS011;16816;44.444;26.152;2022-10-16T01:17:21;30.98;;;21.00;;
29960;SDS011;16816;44.444;26.152;2022-10-16T01:22:33;31.08;;;21.42;;
29960;SDS011;16816;44.444;26.152;2022-10-16T01:27:48;26.48;;;21.02;;
29960;SDS011;16816;44.444;26.152;2022-10-16T01:32:53;31.80;;;21.50;;
29960;SDS011;16816;44.444;26.152;2022-10-16T01:38:00;28.85;;;21.98;;
29960;SDS011;16816;44.444;26.152;2022-10-16T01:43:08;30.80;;;22.40;;
29960;SDS011;16816;44.444;26.152;2022-10-16T01:48:16;30.63;;;21.05;;
29960;SDS011;16816;44.444;26.152;2022-10-16T01:53:21;26.23;;;20.27;;
29960;SDS011;16816;44.444;26.152;2022-10-16T01:58:27;31.38;;;21.55;;
29960;SDS011;16816;44.444;26.152;2022-10-16T02:03:33;28.05;;;22.15;;
29960;SDS011;16816;44.444;26.152;2022-10-16T02:08:37;25.38;;;21.75;;
29960;SDS011;16816;44.444;26.152;2022-10-16T02:13:44;28.33;;;21.10;;
29960;SDS011;16816;44.444;26.152;2022-10-16T02:18:50;29.20;;;20.88;;
29960;SDS011;16816;44.444;26.152;2022-10-16T02:23:54;25.45;;;21.67;;
29960;SDS011;16816;44.444;26.152;2022-10-16T02:29:07;29.60;;;21.27;;
29960;SDS011;16816;44.444;26.152;2022-10-16T02:34:14;27.25;;;21.90;;
29960;SDS011;16816;44.444;26.152;2022-10-16T02:39:19;21.87;;;16.70;;
29960;SDS011;16816;44.444;26.152;2022-10-16T02:44:25;25.48;;;19.55;;
29960;SDS011;16816;44.444;26.152;2022-10-16T02:49:29;27.42;;;17.83;;
29960;SDS011;16816;44.444;26.152;2022-10-16T02:54:33;23.98;;;18.55;;
29960;SDS011;16816;44.444;26.152;2022-10-16T02:59:38;21.52;;;17.20;;
29960;SDS011;16816;44.444;26.152;2022-10-16T03:04:42;22.63;;;17.00;;
29960;SDS011;16816;44.444;26.152;2022-10-16T03:09:45;18.95;;;15.88;;
29960;SDS011;16816;44.444;26.152;2022-10-16T03:14:51;18.15;;;14.85;;
29960;SDS011;16816;44.444;26.152;2022-10-16T03:19:54;18.27;;;15.10;;
29960;SDS011;16816;44.444;26.152;2022-10-16T03:24:58;20.88;;;15.23;;
29960;SDS011;16816;44.444;26.152;2022-10-16T03:30:04;18.95;;;15.27;;
29960;SDS011;16816;44.444;26.152;2022-10-16T03:40:12;21.67;;;14.95;;
29960;SDS011;16816;44.444;26.152;2022-10-16T03:45:17;22.42;;;15.52;;
29960;SDS011;16816;44.444;26.152;2022-10-16T03:50:21;18.15;;;14.32;;
29960;SDS011;16816;44.444;26.152;2022-10-16T03:55:24;20.63;;;15.05;;
29960;SDS011;16816;44.444;26.152;2022-10-16T04:00:30;25.13;;;15.30;;
29960;SDS011;16816;44.444;26.152;2022-10-16T04:05:33;20.15;;;14.52;;
29960;SDS011;16816;44.444;26.152;2022-10-16T04:10:37;23.30;;;14.88;;
29960;SDS011;16816;44.444;26.152;2022-10-16T04:15:42;20.60;;;15.00;;
29960;SDS011;16816;44.444;26.152;2022-10-16T04:20:47;20.00;;;14.82;;
29960;SDS011;16816;44.444;26.152;2022-10-16T04:25:51;16.55;;;14.18;;
29960;SDS011;16816;44.444;26.152;2022-10-16T04:30:56;20.10;;;14.10;;
29960;SDS011;16816;44.444;26.152;2022-10-16T04:36:01;18.37;;;13.57;;
29960;SDS011;16816;44.444;26.152;2022-10-16T04:41:06;17.77;;;13.75;;
29960;SDS011;16816;44.444;26.152;2022-10-16T04:46:11;17.77;;;13.55;;
29960;SDS011;16816;44.444;26.152;2022-10-16T04:51:15;13.53;;;10.20;;
29960;SDS011;16816;44.444;26.152;2022-10-16T04:56:20;17.20;;;13.57;;
29960;SDS011;16816;44.444;26.152;2022-10-16T05:01:26;18.20;;;13.20;;
29960;SDS011;16816;44.444;26.152;2022-10-16T05:06:30;17.00;;;12.90;;
29960;SDS011;16816;44.444;26.152;2022-10-16T05:11:34;17.13;;;12.75;;
29960;SDS011;16816;44.444;26.152;2022-10-16T05:16:39;17.70;;;15.75;;
29960;SDS011;16816;44.444;26.152;2022-10-16T05:21:43;15.35;;;13.40;;
29960;SDS011;16816;44.444;26.152;2022-10-16T05:26:47;16.88;;;12.82;;
29960;SDS011;16816;44.444;26.152;2022-10-16T05:31:52;20.40;;;12.93;;
29960;SDS011;16816;44.444;26.152;2022-10-16T05:36:56;15.68;;;10.63;;
29960;SDS011;16816;44.444;26.152;2022-10-16T05:42:00;16.10;;;10.55;;
29960;SDS011;16816;44.444;26.152;2022-10-16T05:47:05;15.32;;;10.90;;
29960;SDS011;16816;44.444;26.152;2022-10-16T05:52:09;13.02;;;10.32;;
29960;SDS011;16816;44.444;26.152;2022-10-16T05:57:13;16.55;;;10.77;;
29960;SDS011;16816;44.444;26.152;2022-10-16T06:02:18;13.13;;;9.90;;
29960;SDS011;16816;44.444;26.152;2022-10-16T06:07:22;15.43;;;9.77;;
29960;SDS011;16816;44.444;26.152;2022-10-16T06:12:27;16.80;;;9.98;;
29960;SDS011;16816;44.444;26.152;2022-10-16T06:17:32;15.07;;;10.00;;
29960;SDS011;16816;44.444;26.152;2022-10-16T06:22:36;18.38;;;10.60;;
29960;SDS011;16816;44.444;26.152;2022-10-16T06:27:40;17.45;;;10.32;;
29960;SDS011;16816;44.444;26.152;2022-10-16T06:32:45;14.60;;;9.25;;
29960;SDS011;16816;44.444;26.152;2022-10-16T06:37:49;17.88;;;9.18;;
29960;SDS011;16816;44.444;26.152;2022-10-16T06:42:54;18.45;;;9.38;;
29960;SDS011;16816;44.444;26.152;2022-10-16T06:47:59;13.50;;;9.75;;
29960;SDS011;16816;44.444;26.152;2022-10-16T06:53:03;15.33;;;9.80;;
29960;SDS011;16816;44.444;26.152;2022-10-16T06:58:07;16.83;;;10.60;;
29960;SDS011;16816;44.444;26.152;2022-10-16T07:03:13;16.58;;;11.10;;
29960;SDS011;16816;44.444;26.152;2022-10-16T07:08:18;16.48;;;11.88;;
29960;SDS011;16816;44.444;26.152;2022-10-16T07:13:22;16.73;;;11.13;;
29960;SDS011;16816;44.444;26.152;2022-10-16T07:18:27;20.40;;;11.50;;
29960;SDS011;16816;44.444;26.152;2022-10-16T07:28:35;19.30;;;11.13;;
29960;SDS011;16816;44.444;26.152;2022-10-16T07:33:41;18.08;;;10.48;;
29960;SDS011;16816;44.444;26.152;2022-10-16T07:38:46;18.23;;;10.35;;
29960;SDS011;16816;44.444;26.152;2022-10-16T07:43:54;12.85;;;9.07;;
29960;SDS011;16816;44.444;26.152;2022-10-16T07:49:00;17.73;;;9.25;;
29960;SDS011;16816;44.444;26.152;2022-10-16T07:54:03;19.02;;;10.02;;
29960;SDS011;16816;44.444;26.152;2022-10-16T07:59:07;20.17;;;10.45;;
29960;SDS011;16816;44.444;26.152;2022-10-16T08:04:12;14.55;;;8.25;;
29960;SDS011;16816;44.444;26.152;2022-10-16T08:09:16;14.17;;;8.10;;
29960;SDS011;16816;44.444;26.152;2022-10-16T08:14:20;13.93;;;9.15;;
29960;SDS011;16816;44.444;26.152;2022-10-16T08:19:25;20.33;;;8.90;;
29960;SDS011;16816;44.444;26.152;2022-10-16T08:24:29;14.40;;;9.07;;
29960;SDS011;16816;44.444;26.152;2022-10-16T08:29:34;13.17;;;6.67;;
29960;SDS011;16816;44.444;26.152;2022-10-16T08:34:39;13.55;;;7.70;;
29960;SDS011;16816;44.444;26.152;2022-10-16T08:39:43;11.47;;;7.80;;
29960;SDS011;16816;44.444;26.152;2022-10-16T08:44:53;16.90;;;7.93;;
29960;SDS011;16816;44.444;26.152;2022-10-16T08:50:14;14.88;;;7.63;;
29960;SDS011;16816;44.444;26.152;2022-10-16T08:55:26;15.90;;;8.18;;
29960;SDS011;16816;44.444;26.152;2022-10-16T09:00:34;15.23;;;8.38;;
29960;SDS011;16816;44.444;26.152;2022-10-16T09:05:48;17.13;;;7.78;;
29960;SDS011;16816;44.444;26.152;2022-10-16T09:11:06;13.57;;;7.88;;
29960;SDS011;16816;44.444;26.152;2022-10-16T09:16:15;14.45;;;7.95;;
29960;SDS011;16816;44.444;26.152;2022-10-16T09:21:25;18.23;;;8.30;;
29960;SDS011;16816;44.444;26.152;2022-10-16T09:26:29;19.27;;;8.43;;
29960;SDS011;16816;44.444;26.152;2022-10-16T09:31:35;19.77;;;9.52;;
29960;SDS011;16816;44.444;26.152;2022-10-16T09:36:43;17.70;;;9.60;;
29960;SDS011;16816;44.444;26.152;2022-10-16T09:47:00;16.98;;;9.50;;
29960;SDS011;16816;44.444;26.152;2022-10-16T09:52:11;15.73;;;9.85;;
29960;SDS011;16816;44.444;26.152;2022-10-16T09:57:16;17.52;;;10.23;;
29960;SDS011;16816;44.444;26.152;2022-10-16T10:02:23;13.57;;;9.13;;
29960;SDS011;16816;44.444;26.152;2022-10-16T10:07:35;12.02;;;9.55;;
29960;SDS011;16816;44.444;26.152;2022-10-16T10:12:43;12.65;;;8.73;;
29960;SDS011;16816;44.444;26.152;2022-10-16T10:17:49;11.85;;;9.65;;
29960;SDS011;16816;44.444;26.152;2022-10-16T10:22:55;11.00;;;9.15;;
29960;SDS011;16816;44.444;26.152;2022-10-16T10:28:08;16.45;;;9.55;;
29960;SDS011;16816;44.444;26.152;2022-10-16T10:33:21;14.25;;;9.55;;
29960;SDS011;16816;44.444;26.152;2022-10-16T10:38:34;15.43;;;8.95;;
29960;SDS011;16816;44.444;26.152;2022-10-16T10:43:47;13.32;;;8.70;;
29960;SDS011;16816;44.444;26.152;2022-10-16T10:49:00;12.52;;;8.40;;
29960;SDS011;16816;44.444;26.152;2022-10-16T10:54:14;15.00;;;8.23;;
29960;SDS011;16816;44.444;26.152;2022-10-16T11:04:54;14.50;;;8.02;;
29960;SDS011;16816;44.444;26.152;2022-10-16T11:10:08;15.18;;;8.80;;
29960;SDS011;16816;44.444;26.152;2022-10-16T11:15:17;14.25;;;7.78;;
29960;SDS011;16816;44.444;26.152;2022-10-16T11:20:24;13.50;;;8.10;;
29960;SDS011;16816;44.444;26.152;2022-10-16T11:25:32;13.25;;;7.55;;
29960;SDS011;16816;44.444;26.152;2022-10-16T11:30:39;17.92;;;8.07;;
29960;SDS011;16816;44.444;26.152;2022-10-16T11:35:47;12.48;;;7.85;;
29960;SDS011;16816;44.444;26.152;2022-10-16T11:40:54;9.93;;;7.65;;
29960;SDS011;16816;44.444;26.152;2022-10-16T11:46:02;14.20;;;8.02;;
29960;SDS011;16816;44.444;26.152;2022-10-16T11:51:14;13.88;;;8.07;;
29960;SDS011;16816;44.444;26.152;2022-10-16T11:56:22;11.35;;;7.53;;
29960;SDS011;16816;44.444;26.152;2022-10-16T12:01:28;15.02;;;7.35;;
29960;SDS011;16816;44.444;26.152;2022-10-16T12:06:36;13.27;;;7.10;;
29960;SDS011;16816;44.444;26.152;2022-10-16T12:11:42;13.05;;;6.80;;
29960;SDS011;16816;44.444;26.152;2022-10-16T12:16:53;13.32;;;7.75;;
29960;SDS011;16816;44.444;26.152;2022-10-16T12:21:59;13.65;;;7.10;;
29960;SDS011;16816;44.444;26.152;2022-10-16T12:27:05;13.02;;;6.63;;
29960;SDS011;16816;44.444;26.152;2022-10-16T12:32:21;15.90;;;7.55;;
29960;SDS011;16816;44.444;26.152;2022-10-16T12:37:48;13.70;;;6.65;;
29960;SDS011;16816;44.444;26.152;2022-10-16T12:42:54;17.13;;;7.13;;
29960;SDS011;16816;44.444;26.152;2022-10-16T12:47:58;16.70;;;7.07;;
29960;SDS011;16816;44.444;26.152;2022-10-16T12:53:03;10.13;;;6.40;;
29960;SDS011;16816;44.444;26.152;2022-10-16T12:58:18;12.43;;;6.72;;
29960;SDS011;16816;44.444;26.152;2022-10-16T13:03:32;9.80;;;6.03;;
29960;SDS011;16816;44.444;26.152;2022-10-16T13:08:55;10.52;;;6.45;;
29960;SDS011;16816;44.444;26.152;2022-10-16T13:14:27;14.20;;;6.00;;
29960;SDS011;16816;44.444;26.152;2022-10-16T13:19:41;13.85;;;5.78;;
29960;SDS011;16816;44.444;26.152;2022-10-16T13:24:53;8.80;;;5.43;;
29960;SDS011;16816;44.444;26.152;2022-10-16T13:30:11;17.30;;;6.05;;
29960;SDS011;16816;44.444;26.152;2022-10-16T13:35:20;8.57;;;5.90;;
29960;SDS011;16816;44.444;26.152;2022-10-16T13:40:26;12.20;;;5.80;;
29960;SDS011;16816;44.444;26.152;2022-10-16T13:45:31;19.75;;;5.78;;
29960;SDS011;16816;44.444;26.152;2022-10-16T13:50:35;8.32;;;5.28;;
29960;SDS011;16816;44.444;26.152;2022-10-16T13:55:39;9.73;;;5.93;;
29960;SDS011;16816;44.444;26.152;2022-10-16T14:00:53;9.18;;;6.13;;
29960;SDS011;16816;44.444;26.152;2022-10-16T14:11:02;9.10;;;5.82;;
29960;SDS011;16816;44.444;26.152;2022-10-16T14:16:08;18.10;;;6.45;;
29960;SDS011;16816;44.444;26.152;2022-10-16T14:21:14;12.85;;;5.82;;
29960;SDS011;16816;44.444;26.152;2022-10-16T14:26:20;13.43;;;7.32;;
29960;SDS011;16816;44.444;26.152;2022-10-16T14:31:28;9.65;;;6.25;;
29960;SDS011;16816;44.444;26.152;2022-10-16T14:36:33;15.95;;;6.70;;
29960;SDS011;16816;44.444;26.152;2022-10-16T14:41:40;17.85;;;6.47;;
29960;SDS011;16816;44.444;26.152;2022-10-16T14:46:46;11.57;;;7.22;;
29960;SDS011;16816;44.444;26.152;2022-10-16T14:51:50;13.80;;;6.67;;
29960;SDS011;16816;44.444;26.152;2022-10-16T14:56:55;13.98;;;6.88;;
29960;SDS011;16816;44.444;26.152;2022-10-16T15:02:01;10.93;;;6.93;;
29960;SDS011;16816;44.444;26.152;2022-10-16T15:07:16;14.75;;;7.22;;
29960;SDS011;16816;44.444;26.152;2022-10-16T15:12:20;13.32;;;8.55;;
29960;SDS011;16816;44.444;26.152;2022-10-16T15:17:25;15.00;;;8.65;;
29960;SDS011;16816;44.444;26.152;2022-10-16T15:22:30;26.30;;;10.45;;
29960;SDS011;16816;44.444;26.152;2022-10-16T15:27:34;16.70;;;9.57;;
29960;SDS011;16816;44.444;26.152;2022-10-16T15:32:43;17.88;;;8.70;;
29960;SDS011;16816;44.444;26.152;2022-10-16T15:37:47;14.00;;;8.20;;
29960;SDS011;16816;44.444;26.152;2022-10-16T15:42:51;18.95;;;8.93;;
29960;SDS011;16816;44.444;26.152;2022-10-16T15:47:56;18.23;;;9.80;;
29960;SDS011;16816;44.444;26.152;2022-10-16T15:53:00;26.53;;;10.67;;
29960;SDS011;16816;44.444;26.152;2022-10-16T15:58:04;21.00;;;11.23;;
29960;SDS011;16816;44.444;26.152;2022-10-16T16:03:09;26.08;;;13.13;;
29960;SDS011;16816;44.444;26.152;2022-10-16T16:08:14;29.13;;;13.10;;
29960;SDS011;16816;44.444;26.152;2022-10-16T16:13:18;26.95;;;13.85;;
29960;SDS011;16816;44.444;26.152;2022-10-16T16:18:24;26.17;;;16.67;;
29960;SDS011;16816;44.444;26.152;2022-10-16T16:23:27;29.97;;;18.87;;
29960;SDS011;16816;44.444;26.152;2022-10-16T16:28:31;34.70;;;21.73;;
29960;SDS011;16816;44.444;26.152;2022-10-16T16:33:37;46.70;;;27.25;;
29960;SDS011;16816;44.444;26.152;2022-10-16T16:38:40;30.73;;;20.35;;
29960;SDS011;16816;44.444;26.152;2022-10-16T16:43:44;31.02;;;21.63;;
29960;SDS011;16816;44.444;26.152;2022-10-16T16:48:51;32.35;;;19.33;;
29960;SDS011;16816;44.444;26.152;2022-10-16T16:53:57;30.77;;;17.65;;
29960;SDS011;16816;44.444;26.152;2022-10-16T16:59:01;30.70;;;16.63;;
29960;SDS011;16816;44.444;26.152;2022-10-16T17:04:07;35.72;;;19.05;;
29960;SDS011;16816;44.444;26.152;2022-10-16T17:09:12;27.67;;;17.48;;
29960;SDS011;16816;44.444;26.152;2022-10-16T17:14:17;30.88;;;19.33;;
29960;SDS011;16816;44.444;26.152;2022-10-16T17:19:22;28.83;;;16.83;;
29960;SDS011;16816;44.444;26.152;2022-10-16T17:24:26;28.95;;;17.92;;
29960;SDS011;16816;44.444;26.152;2022-10-16T17:29:30;25.73;;;17.70;;
29960;SDS011;16816;44.444;26.152;2022-10-16T17:34:35;30.80;;;17.95;;
29960;SDS011;16816;44.444;26.152;2022-10-16T17:39:39;32.50;;;19.45;;
29960;SDS011;16816;44.444;26.152;2022-10-16T17:44:43;38.08;;;20.00;;
29960;SDS011;16816;44.444;26.152;2022-10-16T17:49:48;41.80;;;25.25;;
29960;SDS011;16816;44.444;26.152;2022-10-16T17:54:52;41.20;;;25.67;;
29960;SDS011;16816;44.444;26.152;2022-10-16T17:59:57;50.60;;;26.85;;
29960;SDS011;16816;44.444;26.152;2022-10-16T18:05:07;38.10;;;23.65;;
29960;SDS011;16816;44.444;26.152;2022-10-16T18:10:12;31.30;;;20.13;;
29960;SDS011;16816;44.444;26.152;2022-10-16T18:15:21;37.58;;;20.67;;
29960;SDS011;16816;44.444;26.152;2022-10-16T18:20:27;34.75;;;21.00;;
29960;SDS011;16816;44.444;26.152;2022-10-16T18:25:30;36.40;;;21.65;;
29960;SDS011;16816;44.444;26.152;2022-10-16T18:30:34;32.95;;;19.08;;
29960;SDS011;16816;44.444;26.152;2022-10-16T18:35:39;27.33;;;17.17;;
29960;SDS011;16816;44.444;26.152;2022-10-16T18:40:44;32.65;;;18.08;;
29960;SDS011;16816;44.444;26.152;2022-10-16T18:45:54;26.15;;;15.82;;
29960;SDS011;16816;44.444;26.152;2022-10-16T18:51:06;21.95;;;14.32;;
29960;SDS011;16816;44.444;26.152;2022-10-16T18:56:14;25.08;;;14.55;;
29960;SDS011;16816;44.444;26.152;2022-10-16T19:01:19;21.48;;;13.73;;
29960;SDS011;16816;44.444;26.152;2022-10-16T19:06:26;24.77;;;12.60;;
29960;SDS011;16816;44.444;26.152;2022-10-16T19:11:30;27.02;;;13.70;;
29960;SDS011;16816;44.444;26.152;2022-10-16T19:16:41;21.02;;;13.27;;
29960;SDS011;16816;44.444;26.152;2022-10-16T19:21:46;23.63;;;14.07;;
29960;SDS011;16816;44.444;26.152;2022-10-16T19:26:56;25.15;;;13.95;;
29960;SDS011;16816;44.444;26.152;2022-10-16T19:32:00;24.20;;;14.23;;
29960;SDS011;16816;44.444;26.152;2022-10-16T19:37:10;27.05;;;18.95;;
29960;SDS011;16816;44.444;26.152;2022-10-16T19:42:15;31.48;;;20.52;;
29960;SDS011;16816;44.444;26.152;2022-10-16T19:47:18;46.35;;;36.97;;
29960;SDS011;16816;44.444;26.152;2022-10-16T19:52:25;41.83;;;32.00;;
29960;SDS011;16816;44.444;26.152;2022-10-16T19:57:31;36.17;;;24.90;;
29960;SDS011;16816;44.444;26.152;2022-10-16T20:02:37;30.33;;;20.58;;
29960;SDS011;16816;44.444;26.152;2022-10-16T20:07:42;25.75;;;17.63;;
29960;SDS011;16816;44.444;26.152;2022-10-16T20:12:49;26.23;;;17.73;;
29960;SDS011;16816;44.444;26.152;2022-10-16T20:17:53;22.35;;;16.73;;
29960;SDS011;16816;44.444;26.152;2022-10-16T20:22:58;25.65;;;16.48;;
29960;SDS011;16816;44.444;26.152;2022-10-16T20:28:03;23.50;;;16.05;;
29960;SDS011;16816;44.444;26.152;2022-10-16T20:33:07;32.92;;;18.25;;
29960;SDS011;16816;44.444;26.152;2022-10-16T20:38:12;28.20;;;20.17;;
29960;SDS011;16816;44.444;26.152;2022-10-16T20:43:17;31.90;;;20.60;;
29960;SDS011;16816;44.444;26.152;2022-10-16T20:48:21;30.80;;;19.60;;
29960;SDS011;16816;44.444;26.152;2022-10-16T20:53:26;34.60;;;20.48;;
29960;SDS011;16816;44.444;26.152;2022-10-16T20:58:30;33.45;;;19.55;;
29960;SDS011;16816;44.444;26.152;2022-10-16T21:03:34;29.40;;;19.90;;
29960;SDS011;16816;44.444;26.152;2022-10-16T21:08:39;34.17;;;20.55;;
29960;SDS011;16816;44.444;26.152;2022-10-16T21:13:44;29.02;;;20.52;;
29960;SDS011;16816;44.444;26.152;2022-10-16T21:18:48;35.63;;;19.40;;
29960;SDS011;16816;44.444;26.152;2022-10-16T21:23:54;33.65;;;18.63;;
29960;SDS011;16816;44.444;26.152;2022-10-16T21:34:02;26.45;;;16.90;;
29960;SDS011;16816;44.444;26.152;2022-10-16T21:39:09;22.45;;;15.63;;
29960;SDS011;16816;44.444;26.152;2022-10-16T21:44:14;24.55;;;16.08;;
29960;SDS011;16816;44.444;26.152;2022-10-16T21:49:18;27.30;;;17.15;;
29960;SDS011;16816;44.444;26.152;2022-10-16T21:54:23;29.70;;;18.33;;
29960;SDS011;16816;44.444;26.152;2022-10-16T21:59:27;26.42;;;18.35;;
29960;SDS011;16816;44.444;26.152;2022-10-16T22:04:31;29.20;;;18.23;;
29960;SDS011;16816;44.444;26.152;2022-10-16T22:09:36;31.05;;;18.00;;
29960;SDS011;16816;44.444;26.152;2022-10-16T22:14:40;31.42;;;18.50;;
29960;SDS011;16816;44.444;26.152;2022-10-16T22:19:44;28.13;;;17.85;;
29960;SDS011;16816;44.444;26.152;2022-10-16T22:24:49;26.40;;;16.83;;
29960;SDS011;16816;44.444;26.152;2022-10-16T22:29:53;23.25;;;17.05;;
29960;SDS011;16816;44.444;26.152;2022-10-16T22:34:57;22.60;;;17.00;;
29960;SDS011;16816;44.444;26.152;2022-10-16T22:40:02;26.15;;;16.83;;
29960;SDS011;16816;44.444;26.152;2022-10-16T22:45:06;28.37;;;16.67;;
29960;SDS011;16816;44.444;26.152;2022-10-16T22:50:10;32.33;;;16.80;;
29960;SDS011;16816;44.444;26.152;2022-10-16T22:55:15;24.33;;;17.27;;
29960;SDS011;16816;44.444;26.152;2022-10-16T23:00:19;18.00;;;12.50;;
29960;SDS011;16816;44.444;26.152;2022-10-16T23:05:23;25.00;;;17.55;;
29960;SDS011;16816;44.444;26.152;2022-10-16T23:10:28;26.02;;;17.25;;
29960;SDS011;16816;44.444;26.152;2022-10-16T23:15:32;32.70;;;18.70;;
29960;SDS011;16816;44.444;26.152;2022-10-16T23:20:37;28.42;;;17.45;;
29960;SDS011;16816;44.444;26.152;2022-10-16T23:25:45;26.58;;;16.92;;
29960;SDS011;16816;44.444;26.152;2022-10-16T23:30:49;30.92;;;18.17;;
29960;SDS011;16816;44.444;26.152;2022-10-16T23:35:52;21.50;;;17.05;;
29960;SDS011;16816;44.444;26.152;2022-10-16T23:40:58;24.48;;;17.08;;
29960;SDS011;16816;44.444;26.152;2022-10-16T23:46:01;23.85;;;17.13;;
29960;SDS011;16816;44.444;26.152;2022-10-16T23:51:05;24.02;;;17.80;;
29960;SDS011;16816;44.444;26.152;2022-10-16T23:56:11;21.33;;;17.20;;
